Time;durP1;ratioP1;P1;durP2;ratioP2;P2;SDS_P1;SDS_P2;PMS_P1;PMS_P2;Temp;Humidity;BMP_temperature;BMP_pressure;BME280_temperature;BME280_humidity;BME280_pressure;Samples;Min_cycle;Max_cycle;Signal;HPM_P1;HPM_P2
2022/03/14 00:02:17;;;;;;;8.07;4.37;;;;;;;-2.18;100.00;60581.91;5100570;28;20438;-77
2022/03/14 00:08:09;;;;;;;7.73;4.10;;;;;;;-1.89;100.00;60609.56;5093822;28;21032;-78
2022/03/14 00:13:39;;;;;;;8.43;4.10;;;;;;;-2.30;100.00;60568.72;5092726;28;21026;-77
2022/03/14 00:19:05;;;;;;;8.50;4.87;;;;;;;-2.44;100.00;60551.94;5092707;28;20445;-79
2022/03/14 00:21:41;;;;;;;9.10;4.27;;;;;;;-2.18;100.00;60576.41;5093588;28;20485;-77
2022/03/14 00:24:11;;;;;;;11.97;4.30;;;;;;;-2.38;100.00;60557.75;5094236;28;20430;-77
2022/03/14 00:26:44;;;;;;;7.50;4.27;;;;;;;-2.30;100.00;60568.72;5094185;28;20462;-77
2022/03/14 00:29:47;;;;;;;8.70;4.47;;;;;;;-2.26;100.00;60567.94;5093581;28;20450;-79
2022/03/14 00:32:31;;;;;;;9.53;5.03;;;;;;;-2.15;100.00;60579.59;5093448;28;20442;-78
2022/03/14 00:35:11;;;;;;;11.03;4.97;;;;;;;-2.05;100.00;60595.13;5093264;28;20434;-77
2022/03/14 00:37:52;;;;;;;8.63;4.50;;;;;;;-2.23;100.00;60574.13;5093392;28;20444;-78
2022/03/14 00:40:28;;;;;;;10.60;5.17;;;;;;;-2.02;100.00;60598.28;5093578;28;20223;-79
2022/03/14 00:43:03;;;;;;;8.67;4.87;;;;;;;-1.91;100.00;60609.94;5093081;28;20943;-78
2022/03/14 00:48:35;;;;;;;9.00;4.90;;;;;;;-1.97;100.00;60603.59;5092549;28;20461;-77
2022/03/14 00:51:08;;;;;;;7.77;4.83;;;;;;;-2.17;100.00;60582.47;5093348;28;20448;-79
2022/03/14 00:53:49;;;;;;;10.53;5.10;;;;;;;-3.46;100.00;60442.28;5093576;28;20448;-78
2022/03/14 00:59:13;;;;;;;12.57;5.13;;;;;;;-2.13;100.00;60586.69;5093160;28;20464;-79
2022/03/14 01:01:52;;;;;;;14.90;5.13;;;;;;;-2.49;100.00;60546.16;5092912;28;20942;-78
2022/03/14 01:07:25;;;;;;;11.67;5.70;;;;;;;-2.98;100.00;60495.44;5092723;28;20454;-81
2022/03/14 01:09:53;;;;;;;16.40;7.37;;;;;;;-2.65;100.00;60532.78;5092570;28;20449;-79
2022/03/14 01:15:23;;;;;;;17.50;7.97;;;;;;;-2.84;100.00;60515.22;5091986;28;20544;-79
2022/03/14 01:17:51;;;;;;;21.13;9.60;;;;;;;-2.32;100.00;60567.13;5092103;28;20469;-80
2022/03/14 01:20:24;;;;;;;22.67;11.17;;;;;;;-2.36;100.00;60559.88;5092701;28;20487;-77
2022/03/14 01:22:54;;;;;;;18.47;8.80;;;;;;;-2.64;100.00;60538.84;5092557;28;20489;-77
2022/03/14 01:25:22;;;;;;;12.93;5.87;;;;;;;-2.76;100.00;60523.66;5092262;28;21000;-78
2022/03/14 01:27:58;;;;;;;9.97;5.47;;;;;;;-2.80;100.00;60516.41;5092789;28;20449;-76
2022/03/14 01:30:27;;;;;;;8.03;4.57;;;;;;;-2.80;100.00;60516.94;5092861;28;20433;-77
2022/03/14 01:32:54;;;;;;;8.27;3.80;;;;;;;-3.25;100.00;60464.44;5092333;28;20441;-76
2022/03/14 01:35:26;;;;;;;7.73;3.93;;;;;;;-2.80;100.00;60514.47;5092459;28;20510;-76
2022/03/14 01:37:56;;;;;;;9.30;3.83;;;;;;;-3.75;100.00;60411.69;5083431;28;20454;-78
2022/03/14 01:40:25;;;;;;;8.93;4.30;;;;;;;-2.89;100.00;60507.44;5092291;28;20612;-78
2022/03/14 01:45:37;;;;;;;3.88;2.35;;;;;;;-3.25;100.00;60463.91;5092113;28;20206;-78
2022/03/14 01:48:09;;;;;;;9.15;4.70;;;;;;;-3.13;100.00;60482.09;5092092;28;20293;-78
2022/03/14 01:50:38;;;;;;;8.55;4.32;;;;;;;-3.59;100.00;60433.53;5090716;28;20241;-77
2022/03/14 01:53:05;;;;;;;4.60;2.77;;;;;;;-3.50;100.00;60438.06;5092251;28;20245;-79
2022/03/14 01:55:32;;;;;;;6.93;3.72;;;;;;;-3.36;100.00;60447.88;5092302;28;20454;-76
2022/03/14 01:58:03;;;;;;;8.90;4.17;;;;;;;-3.19;100.00;60475.75;5092011;28;20199;-78
2022/03/14 02:00:32;;;;;;;8.43;4.45;;;;;;;-3.43;100.00;60445.44;5091895;28;20864;-77
2022/03/14 02:02:59;;;;;;;16.00;4.97;;;;;;;-3.65;100.00;60432.19;5092121;28;20196;-77
2022/03/14 02:05:27;;;;;;;9.65;4.82;;;;;;;-6.80;100.00;60095.09;5092382;28;20446;-78
2022/03/14 02:08:12;;;;;;;9.20;4.50;;;;;;;-3.44;100.00;60449.38;5094073;28;20207;-77
2022/03/14 02:10:40;;;;;;;10.10;5.30;;;;;;;-5.96;100.00;60184.88;5092486;28;20200;-77
2022/03/14 02:13:10;;;;;;;12.27;5.32;;;;;;;-3.77;100.00;60417.03;5094998;28;20262;-76
2022/03/14 02:15:39;;;;;;;14.03;5.77;;;;;;;-3.40;100.00;60456.09;5102592;28;20204;-77
2022/03/14 02:18:07;;;;;;;10.52;5.28;;;;;;;-3.26;100.00;60467.84;5103700;28;20444;-77
2022/03/14 02:20:37;;;;;;;9.70;5.40;;;;;;;-3.21;100.00;60471.16;5107849;28;20219;-77
2022/03/14 02:23:04;;;;;;;10.80;5.18;;;;;;;-3.18;100.00;60474.34;5109214;28;20256;-80
2022/03/14 02:25:36;;;;;;;11.45;5.60;;;;;;;-3.28;100.00;60466.28;5094054;28;20199;-78
2022/03/14 02:28:05;;;;;;;13.55;6.05;;;;;;;-3.24;100.00;60475.47;5093528;28;20203;-77
2022/03/14 02:30:34;;;;;;;11.33;5.53;;;;;;;-3.50;100.00;60438.06;5095055;28;20199;-77
2022/03/14 02:33:11;;;;;;;11.68;5.10;;;;;;;-3.23;100.00;60471.53;5096833;28;20442;-77
2022/03/14 02:35:44;;;;;;;9.05;3.83;;;;;;;-3.44;100.00;60449.38;5096368;28;20205;-77
2022/03/14 02:38:14;;;;;;;7.65;3.90;;;;;;;-3.36;100.00;60460.31;5096224;28;20696;-77
2022/03/14 02:40:46;;;;;;;8.10;4.35;;;;;;;-3.36;100.00;60457.28;5095599;28;20646;-77
2022/03/14 02:43:16;;;;;;;7.03;4.20;;;;;;;-3.75;100.00;60407.25;5095559;28;20270;-76
2022/03/14 02:45:47;;;;;;;10.07;4.40;;;;;;;-3.51;100.00;60442.50;5095530;28;20261;-77
2022/03/14 02:48:16;;;;;;;10.13;5.03;;;;;;;-3.64;100.00;60426.31;5095612;28;20208;-79
2022/03/14 02:50:48;;;;;;;9.07;4.53;;;;;;;-3.49;100.00;60439.13;5095381;28;20215;-77
2022/03/14 02:53:24;;;;;;;7.40;4.40;;;;;;;-3.65;100.00;60427.22;5094284;28;20199;-80
2022/03/14 02:55:51;;;;;;;8.68;4.10;;;;;;;-3.90;100.00;60398.34;5095762;28;20948;-77
2022/03/14 02:58:20;;;;;;;8.98;4.30;;;;;;;-3.41;100.00;60455.03;5095981;28;20214;-76
2022/03/14 03:00:57;;;;;;;7.77;4.43;;;;;;;-3.34;100.00;60459.41;5100977;28;20327;-77
2022/03/14 03:03:25;;;;;;;9.87;4.73;;;;;;;-3.51;100.00;60441.97;5098991;28;20450;-79
2022/03/14 03:05:54;;;;;;;8.37;4.17;;;;;;;-3.28;100.00;60466.28;5095289;28;20442;-78
2022/03/14 03:08:23;;;;;;;9.52;4.28;;;;;;;-3.20;100.00;60469.72;5095147;28;20438;-77
2022/03/14 03:10:51;;;;;;;6.90;4.18;;;;;;;-3.22;100.00;60467.63;5095235;28;20200;-76
2022/03/14 03:13:19;;;;;;;17.45;6.82;;;;;;;-3.53;100.00;60439.88;5094951;28;20231;-76
2022/03/14 03:15:48;;;;;;;10.95;5.40;;;;;;;-3.73;100.00;60413.78;5094449;28;20203;-78
2022/03/14 03:18:18;;;;;;;11.87;5.30;;;;;;;-3.47;100.00;60446.75;5095355;28;20588;-76
2022/03/14 03:20:48;;;;;;;10.40;5.10;;;;;;;-3.39;100.00;60452.16;5094899;28;20434;-78
2022/03/14 03:23:20;;;;;;;8.32;4.60;;;;;;;-3.90;100.00;60395.88;5095069;28;20216;-77
2022/03/14 03:25:54;;;;;;;12.40;5.35;;;;;;;-3.41;100.00;60452.53;5094862;28;20191;-76
2022/03/14 03:28:29;;;;;;;12.43;4.93;;;;;;;-4.37;100.00;60352.34;5094664;28;20257;-76
2022/03/14 03:30:56;;;;;;;12.37;4.80;;;;;;;-3.56;100.00;60426.75;5095019;28;20489;-79
2022/03/14 03:36:06;;;;;;;9.15;4.63;;;;;;;-3.41;100.00;60452.53;5093942;28;20452;-79
2022/03/14 03:38:37;;;;;;;8.43;4.68;;;;;;;-3.52;100.00;60438.44;5093125;28;20664;-76
2022/03/14 03:41:07;;;;;;;15.80;5.80;;;;;;;-3.50;100.00;60443.06;5094298;28;20235;-78
2022/03/14 03:43:34;;;;;;;19.63;5.17;;;;;;;-3.34;100.00;60459.94;5094808;28;20220;-79
2022/03/14 03:46:02;;;;;;;14.50;5.28;;;;;;;-3.44;100.00;60449.38;5094422;28;20810;-76
2022/03/14 03:48:31;;;;;;;10.25;5.20;;;;;;;-3.73;100.00;60413.78;5094452;28;20192;-77
2022/03/14 03:51:03;;;;;;;9.00;4.95;;;;;;;-3.48;100.00;60445.16;5093606;28;20593;-79
2022/03/14 03:53:35;;;;;;;10.48;5.38;;;;;;;-3.76;100.00;60413.13;5094007;28;20211;-79
2022/03/14 03:56:08;;;;;;;14.40;5.80;;;;;;;-3.89;100.00;60397.44;5094186;28;20204;-77
2022/03/14 03:58:44;;;;;;;9.60;5.30;;;;;;;-3.42;100.00;60446.50;5094086;28;20433;-77
2022/03/14 04:01:18;;;;;;;11.35;5.55;;;;;;;-3.90;100.00;60398.88;5094224;28;20584;-77
2022/03/14 04:03:54;;;;;;;14.27;6.27;;;;;;;-3.71;100.00;60420.88;5094047;28;20202;-77
2022/03/14 04:06:28;;;;;;;23.53;7.70;;;;;;;-3.54;100.00;60438.81;5094197;28;20506;-77
2022/03/14 04:08:55;;;;;;;11.57;6.43;;;;;;;-3.45;100.00;60448.84;5093515;28;20446;-76
2022/03/14 04:11:25;;;;;;;12.07;6.40;;;;;;;-3.53;100.00;60434.91;5094324;28;20441;-76
2022/03/14 04:13:54;;;;;;;11.47;5.70;;;;;;;-3.74;100.00;60413.25;5093950;28;20821;-77
2022/03/14 04:16:25;;;;;;;12.98;6.25;;;;;;;-3.39;100.00;60454.66;5096376;28;20507;-77
2022/03/14 04:18:53;;;;;;;19.10;6.07;;;;;;;-4.20;100.00;60367.22;5097461;28;20208;-77
2022/03/14 04:21:21;;;;;;;11.82;5.60;;;;;;;-3.83;100.00;60401.28;5093624;28;20227;-77
2022/03/14 04:23:50;;;;;;;13.18;6.60;;;;;;;-3.96;100.00;60392.03;5093440;28;20199;-78
2022/03/14 04:26:17;;;;;;;12.63;5.63;;;;;;;-3.63;100.00;60429.84;5093787;28;20199;-78
2022/03/14 04:28:46;;;;;;;10.77;5.85;;;;;;;-4.67;100.00;60315.75;5093131;28;20678;-77
2022/03/14 04:31:13;;;;;;;11.88;5.40;;;;;;;-4.01;100.00;60389.22;5093649;28;20208;-77
2022/03/14 04:33:42;;;;;;;9.98;4.85;;;;;;;-3.96;100.00;60399.50;5093504;28;20294;-78
2022/03/14 04:36:10;;;;;;;10.55;4.90;;;;;;;-3.42;100.00;60446.50;5093639;28;20192;-78
2022/03/14 04:38:39;;;;;;;11.02;5.03;;;;;;;-3.93;100.00;60395.72;5093648;28;20192;-78
2022/03/14 04:41:06;;;;;;;8.80;4.38;;;;;;;-3.81;100.00;60407.84;5093413;28;20196;-79
2022/03/14 04:43:33;;;;;;;9.18;4.57;;;;;;;-4.26;100.00;60357.91;5093100;28;20280;-77
2022/03/14 04:46:03;;;;;;;11.00;4.93;;;;;;;-3.61;100.00;60429.47;5093611;28;20281;-79
2022/03/14 04:48:32;;;;;;;13.68;4.72;;;;;;;-3.74;100.00;60412.75;5092747;28;20290;-77
2022/03/14 04:51:00;;;;;;;15.30;5.95;;;;;;;-3.60;100.00;60432.50;5093082;28;20295;-78
2022/03/14 04:56:32;;;;;;;21.42;5.43;;;;;;;-3.87;100.00;60404.00;5092905;28;20195;-77
2022/03/14 04:59:01;;;;;;;10.75;5.00;;;;;;;-4.53;100.00;60332.97;5092894;28;20268;-78
2022/03/14 05:01:30;;;;;;;8.65;4.72;;;;;;;-3.56;100.00;60434.22;5093038;28;20276;-77
2022/03/14 05:03:57;;;;;;;11.63;4.53;;;;;;;-3.81;100.00;60405.34;5093446;28;20256;-78
2022/03/14 05:06:28;;;;;;;9.77;4.82;;;;;;;-4.10;100.00;60379.75;5093486;28;20199;-78
2022/03/14 05:08:56;;;;;;;13.35;4.95;;;;;;;-3.86;100.00;60405.06;5092661;28;20693;-77
2022/03/14 05:11:25;;;;;;;11.23;5.03;;;;;;;-4.92;100.00;60294.34;5094207;28;20198;-77
2022/03/14 05:13:56;;;;;;;9.65;5.32;;;;;;;-3.65;100.00;60422.22;5093318;28;20208;-77
2022/03/14 05:16:31;;;;;;;16.92;5.00;;;;;;;-3.74;100.00;60412.75;5093164;28;20773;-78
2022/03/14 05:19:15;;;;;;;9.57;5.15;;;;;;;-3.68;100.00;60424.06;5091625;28;20215;-78
2022/03/14 05:24:25;;;;;;;15.93;6.73;;;;;;;-3.58;100.00;60434.59;5092641;28;20242;-79
2022/03/14 05:26:53;;;;;;;18.33;7.97;;;;;;;-3.71;100.00;60418.41;5092881;28;20521;-78
2022/03/14 05:29:23;;;;;;;26.27;10.93;;;;;;;-3.45;100.00;60448.31;5092646;28;20199;-80
2022/03/14 05:32:10;;;;;;;82.53;33.33;;;;;;;-3.23;100.00;60469.03;5093116;28;20210;-79
2022/03/14 05:34:39;;;;;;;28.07;12.03;;;;;;;-3.22;100.00;60472.59;5091952;28;21000;-77
2022/03/14 05:37:16;;;;;;;53.53;20.73;;;;;;;-2.37;100.00;60556.34;5092327;28;20943;-78
2022/03/14 05:39:43;;;;;;;73.93;26.07;;;;;;;-2.43;100.00;60557.47;5092593;28;20540;-78
2022/03/14 05:42:18;;;;;;;79.87;30.77;;;;;;;-2.47;100.00;60551.25;5093227;28;21058;-81
2022/03/14 05:47:44;;;;;;;90.33;36.33;;;;;;;-2.15;100.00;60579.59;5091516;28;20450;-78
2022/03/14 05:50:16;;;;;;;104.83;37.83;;;;;;;-2.55;100.00;60542.31;5093465;28;20442;-76
2022/03/14 05:52:45;;;;;;;92.33;36.37;;;;;;;-2.19;100.00;60577.84;5094032;28;20433;-80
2022/03/14 05:55:16;;;;;;;85.73;36.13;;;;;;;-2.62;100.00;60530.97;5092937;28;20449;-79
2022/03/14 05:57:44;;;;;;;76.07;29.67;;;;;;;-2.91;100.00;60510.31;5092498;28;20912;-78
2022/03/14 06:00:13;;;;;;;57.17;23.57;;;;;;;-2.02;100.00;60598.28;5091707;28;20449;-79
2022/03/14 06:02:48;;;;;;;61.00;24.00;;;;;;;-1.60;100.00;60642.72;5091393;28;20882;-77
2022/03/14 06:05:24;;;;;;;52.70;23.02;;;;;;;-1.61;100.00;60641.66;5098242;28;20487;-79
2022/03/14 06:07:51;;;;;;;43.83;16.27;;;;;;;-1.03;100.00;60703.03;5099324;28;20561;-77
2022/03/14 06:10:21;;;;;;;27.20;10.93;;;;;;;-0.63;100.00;60744.28;5098442;28;20858;-79
2022/03/14 06:12:49;;;;;;;23.57;9.33;;;;;;;-0.86;100.00;60711.00;5098455;28;20438;-77
2022/03/14 06:15:16;;;;;;;30.47;10.43;;;;;;;-0.63;100.00;60744.81;5098501;28;20442;-78
2022/03/14 06:17:46;;;;;;;29.07;9.17;;;;;;;-0.45;100.00;60761.38;5098074;28;20975;-77
2022/03/14 06:20:15;;;;;;;23.47;6.90;;;;;;;0.05;100.00;60810.75;5098652;28;20481;-76
2022/03/14 06:22:59;;;;;;;17.73;7.93;;;;;;;0.08;100.00;60814.50;5098324;28;20480;-78
2022/03/14 06:25:28;;;;;;;16.33;6.77;;;;;;;-0.39;100.00;60769.69;5101765;28;20430;-78
2022/03/14 06:27:56;;;;;;;20.90;7.73;;;;;;;0.11;100.00;60817.66;5098893;28;20449;-78
2022/03/14 06:30:24;;;;;;;23.23;9.90;;;;;;;-0.75;100.00;60726.59;5099242;28;20437;-79
2022/03/14 06:32:55;;;;;;;19.30;9.27;;;;;;;0.01;100.00;60809.56;5098290;28;20468;-77
2022/03/14 06:35:28;;;;;;;24.40;9.53;;;;;;;0.52;100.00;60863.63;5097750;28;20473;-77
2022/03/14 06:38:02;;;;;;;32.57;10.70;;;;;;;0.90;100.00;60903.38;5098108;28;20522;-79
2022/03/14 06:40:32;;;;;;;40.90;11.77;;;;;;;1.05;100.00;60916.25;5098832;28;20441;-79
2022/03/14 06:45:45;;;;;;;23.10;9.80;;;;;;;1.70;100.00;60985.72;5098808;28;21012;-79
2022/03/14 06:48:14;;;;;;;32.90;11.47;;;;;;;1.79;100.00;60999.25;5098102;28;21013;-83
2022/03/14 06:50:49;;;;;;;31.40;11.43;;;;;;;1.88;100.00;61001.25;5098747;28;20436;-79
2022/03/14 06:53:19;;;;;;;24.67;11.77;;;;;;;1.89;100.00;61004.84;5097368;28;20449;-77
2022/03/14 06:55:47;;;;;;;42.57;12.30;;;;;;;2.76;100.00;61097.22;5098183;28;20831;-78
2022/03/14 06:58:16;;;;;;;23.67;10.40;;;;;;;2.96;100.00;61123.00;5098316;28;20536;-81
2022/03/14 07:00:45;;;;;;;25.60;11.77;;;;;;;1.63;100.00;60982.81;5098202;28;20508;-78
2022/03/14 07:03:14;;;;;;;26.37;13.17;;;;;;;2.24;100.00;61047.56;5098201;28;20500;-78
2022/03/14 07:05:42;;;;;;;33.97;13.07;;;;;;;1.66;100.00;60980.97;5098082;28;20441;-81
2022/03/14 07:08:10;;;;;;;28.70;13.37;;;;;;;2.66;100.00;61088.59;5098003;28;20437;-76
2022/03/14 07:10:39;;;;;;;36.57;14.57;;;;;;;3.11;100.00;61133.91;5097489;28;21027;-76
2022/03/14 07:13:06;;;;;;;27.70;13.50;;;;;;;3.83;100.00;61212.97;5096777;28;20456;-78
2022/03/14 07:15:33;;;;;;;31.00;15.13;;;;;;;3.91;100.00;61224.00;5095550;28;20441;-77
2022/03/14 07:18:00;;;;;;;32.87;13.37;;;;;;;3.87;98.25;61219.75;5094187;28;20493;-77
2022/03/14 07:20:27;;;;;;;59.07;18.03;;;;;;;3.42;96.61;61164.88;5093388;28;20828;-77
2022/03/14 07:22:58;;;;;;;33.03;13.90;;;;;;;2.85;95.63;61106.25;5093286;28;21113;-78
2022/03/14 07:25:31;;;;;;;42.17;15.00;;;;;;;4.07;100.00;61238.50;5094527;28;20453;-80
2022/03/14 07:28:12;;;;;;;39.47;13.97;;;;;;;4.78;95.99;61316.09;5094800;28;20505;-78
2022/03/14 07:30:40;;;;;;;19.20;9.00;;;;;;;4.63;85.43;61294.53;5095253;28;20428;-79
2022/03/14 07:33:07;;;;;;;21.80;9.17;;;;;;;4.52;81.49;61285.88;5094565;28;20481;-76
2022/03/14 07:35:40;;;;;;;20.07;9.77;;;;;;;4.42;77.72;61277.22;5094437;28;20498;-78
2022/03/14 07:38:10;;;;;;;20.97;9.57;;;;;;;4.07;74.80;61230.41;5094423;28;20430;-79
2022/03/14 07:40:38;;;;;;;18.27;10.03;;;;;;;4.16;76.68;61245.56;5094102;28;20448;-77
2022/03/14 07:43:07;;;;;;;17.13;9.00;;;;;;;4.73;78.55;61308.22;5094681;28;20493;-78
2022/03/14 07:45:39;;;;;;;19.73;9.67;;;;;;;4.49;77.44;61279.63;5094275;28;20438;-78
2022/03/14 07:48:07;;;;;;;19.20;8.97;;;;;;;5.12;77.18;61346.72;5094372;28;20576;-78
2022/03/14 07:50:35;;;;;;;46.60;12.33;;;;;;;5.25;74.53;61363.09;5094322;28;20442;-78
2022/03/14 07:53:03;;;;;;;23.27;9.07;;;;;;;5.20;69.66;61355.22;5093631;28;20456;-76
2022/03/14 07:55:31;;;;;;;16.43;9.43;;;;;;;5.65;69.42;61405.72;5094088;28;20430;-78
2022/03/14 07:57:58;;;;;;;35.70;9.77;;;;;;;6.04;68.56;61448.78;5094121;28;21009;-79
2022/03/14 08:00:27;;;;;;;18.43;9.23;;;;;;;5.66;66.70;61406.78;5093668;28;20542;-79
2022/03/14 08:02:55;;;;;;;17.33;9.43;;;;;;;5.25;64.79;61365.63;5093931;28;20473;-78
2022/03/14 08:05:26;;;;;;;16.83;10.00;;;;;;;4.95;66.57;61333.66;5093472;28;20555;-79
2022/03/14 08:07:58;;;;;;;21.63;9.63;;;;;;;5.52;68.29;61399.44;5094240;28;20835;-79
2022/03/14 08:10:29;;;;;;;23.73;10.43;;;;;;;5.59;68.31;61401.84;5094326;28;20438;-79
2022/03/14 08:12:58;;;;;;;16.23;9.13;;;;;;;5.63;67.21;61403.59;5093766;28;20446;-78
2022/03/14 08:15:32;;;;;;;25.43;12.17;;;;;;;5.15;68.98;61349.91;5093755;28;20458;-79
2022/03/14 08:18:06;;;;;;;22.63;11.57;;;;;;;6.09;69.85;61451.56;5093281;28;20518;-78
2022/03/14 08:20:33;;;;;;;42.10;14.00;;;;;;;6.67;70.31;61513.97;5093982;28;20452;-77
2022/03/14 08:23:02;;;;;;;33.33;15.47;;;;;;;7.40;66.40;61591.38;5092220;28;20576;-78
2022/03/14 08:25:31;;;;;;;35.43;14.73;;;;;;;7.50;65.25;61604.56;5093702;28;20442;-76
2022/03/14 08:27:59;;;;;;;31.03;15.23;;;;;;;7.32;65.42;61579.75;5092574;28;20454;-78
2022/03/14 08:30:27;;;;;;;41.63;15.37;;;;;;;5.95;66.23;61435.19;5094350;28;20438;-79
2022/03/14 08:32:57;;;;;;;35.23;15.63;;;;;;;7.51;66.79;61605.63;5109584;28;20460;-76
2022/03/14 08:35:27;;;;;;;35.47;15.30;;;;;;;7.45;67.81;61603.75;5094267;28;20441;-77
2022/03/14 08:38:00;;;;;;;35.87;15.47;;;;;;;7.55;65.60;61604.31;5093439;28;20897;-77
2022/03/14 08:40:28;;;;;;;40.43;15.90;;;;;;;8.10;66.00;61662.53;5093315;28;20944;-76
2022/03/14 08:42:59;;;;;;;40.30;16.10;;;;;;;7.05;68.37;61551.47;5092257;28;20576;-76
2022/03/14 08:45:28;;;;;;;45.17;16.10;;;;;;;7.58;68.40;61605.50;5093128;28;20859;-78
2022/03/14 08:47:56;;;;;;;28.10;14.93;;;;;;;7.52;65.48;61604.19;5093860;28;20453;-79
2022/03/14 08:50:28;;;;;;;32.40;16.00;;;;;;;6.94;67.54;61544.78;5093594;28;20952;-78
2022/03/14 08:52:56;;;;;;;33.27;14.37;;;;;;;7.37;68.66;61590.16;5093159;28;20457;-78
2022/03/14 08:55:25;;;;;;;30.57;14.47;;;;;;;8.13;65.91;61671.31;5091675;28;20481;-77
2022/03/14 08:57:52;;;;;;;31.67;14.40;;;;;;;8.56;63.30;61711.69;5092979;28;20437;-77
2022/03/14 09:00:21;;;;;;;30.37;15.17;;;;;;;8.75;62.31;61732.03;5093293;28;20462;-79
2022/03/14 09:02:49;;;;;;;33.30;15.73;;;;;;;8.65;60.27;61721.34;5092887;28;20573;-79
2022/03/14 09:05:17;;;;;;;30.57;14.87;;;;;;;9.57;58.48;61818.66;5092499;28;20445;-77
2022/03/14 09:07:44;;;;;;;28.73;14.77;;;;;;;9.54;56.16;61815.47;5092702;28;20870;-76
2022/03/14 09:10:15;;;;;;;30.13;14.00;;;;;;;9.52;56.10;61818.41;5092507;28;20541;-76
2022/03/14 09:12:42;;;;;;;20.67;9.10;;;;;;;9.15;48.77;61779.88;5093105;28;21014;-76
2022/03/14 09:15:11;;;;;;;14.50;8.53;;;;;;;9.63;48.11;61825.09;5092712;28;20450;-78
2022/03/14 09:17:46;;;;;;;16.77;9.17;;;;;;;10.01;48.69;61860.66;5092048;28;20473;-78
2022/03/14 09:20:17;;;;;;;21.83;11.13;;;;;;;10.10;47.50;61878.50;5091313;28;20449;-77
2022/03/14 09:22:45;;;;;;;16.97;8.43;;;;;;;10.25;46.92;61888.94;5093113;28;20477;-78
2022/03/14 09:25:16;;;;;;;19.00;8.40;;;;;;;10.14;44.88;61879.72;5093372;28;20473;-77
2022/03/14 09:27:45;;;;;;;17.60;8.37;;;;;;;9.75;45.60;61837.94;5092534;28;20449;-77
2022/03/14 09:30:13;;;;;;;21.07;9.97;;;;;;;10.19;45.59;61885.06;5092637;28;20557;-77
2022/03/14 09:32:40;;;;;;;16.10;8.73;;;;;;;9.62;45.58;61829.09;5092414;28;20441;-76
2022/03/14 09:35:09;;;;;;;20.43;8.93;;;;;;;9.80;44.92;61851.44;5099068;28;20445;-80
2022/03/14 09:37:41;;;;;;;26.70;8.90;;;;;;;10.50;44.69;61918.25;5106705;28;20203;-76
2022/03/14 09:40:10;;;;;;;35.97;14.93;;;;;;;9.68;43.76;61832.97;5092480;28;20444;-79
2022/03/14 09:42:40;;;;;;;15.03;7.13;;;;;;;9.92;43.74;61856.13;5092023;28;20430;-77
2022/03/14 09:45:09;;;;;;;23.90;11.33;;;;;;;9.93;44.00;61862.28;5091930;28;20454;-78
2022/03/14 09:47:40;;;;;;;7.67;5.10;;;;;;;9.09;44.25;61765.84;5092169;28;20434;-77
2022/03/14 09:50:22;;;;;;;12.93;5.70;;;;;;;9.07;45.69;61766.25;5092516;28;20453;-76
2022/03/14 09:52:59;;;;;;;9.00;4.83;;;;;;;9.97;45.68;61864.56;5092441;28;20418;-78
2022/03/14 09:55:28;;;;;;;10.67;4.70;;;;;;;9.46;44.01;61809.44;5092104;28;20487;-77
2022/03/14 10:00:37;;;;;;;10.20;5.57;;;;;;;9.78;45.08;61836.56;5091948;28;20850;-77
2022/03/14 10:03:05;;;;;;;7.70;4.60;;;;;;;9.67;44.42;61831.91;5091925;28;20477;-78
2022/03/14 10:05:34;;;;;;;9.27;4.53;;;;;;;8.41;44.21;61700.75;5091836;28;20442;-76
2022/03/14 10:08:18;;;;;;;11.77;4.80;;;;;;;9.01;44.02;61764.38;5091589;28;20437;-77
2022/03/14 10:10:48;;;;;;;9.77;4.80;;;;;;;8.88;44.43;61751.00;5091450;28;20442;-78
2022/03/14 10:13:16;;;;;;;25.87;8.23;;;;;;;9.15;44.54;61777.34;5091937;28;20437;-77
2022/03/14 10:15:45;;;;;;;7.87;4.37;;;;;;;8.24;44.73;61677.47;5091393;28;20450;-78
2022/03/14 10:18:14;;;;;;;37.77;6.70;;;;;;;9.17;45.63;61776.94;5091176;28;20484;-78
2022/03/14 10:20:55;;;;;;;7.80;4.87;;;;;;;9.69;45.33;61834.03;5094693;28;20441;-79
2022/03/14 10:23:39;;;;;;;10.27;5.17;;;;;;;10.33;43.11;61900.03;5095702;28;20516;-76
2022/03/14 10:26:07;;;;;;;9.07;4.70;;;;;;;11.18;42.91;61990.03;5093162;28;20203;-80
2022/03/14 10:28:38;;;;;;;28.47;8.20;;;;;;;11.28;41.55;62003.31;5094625;28;20306;-77
2022/03/14 10:31:06;;;;;;;12.90;5.57;;;;;;;10.97;42.34;61968.59;5098520;28;20430;-78
2022/03/14 10:33:33;;;;;;;9.27;5.50;;;;;;;11.31;41.05;62003.97;5095223;28;20620;-77
2022/03/14 10:36:01;;;;;;;9.67;5.00;;;;;;;10.76;40.89;61946.09;5094970;28;20290;-78
2022/03/14 10:38:31;;;;;;;9.63;5.57;;;;;;;10.72;41.95;61941.81;5109529;28;20238;-79
2022/03/14 10:41:15;;;;;;;14.77;5.67;;;;;;;10.89;42.35;61962.56;5096596;28;20195;-78
2022/03/14 10:43:42;;;;;;;12.50;5.97;;;;;;;11.63;41.77;62040.84;5099868;28;20253;-77
2022/03/14 10:46:10;;;;;;;8.10;4.60;;;;;;;11.46;41.20;62025.16;5099813;28;20207;-78
2022/03/14 10:48:41;;;;;;;15.67;5.03;;;;;;;11.27;41.71;62004.78;5097737;28;20218;-77
2022/03/14 10:51:11;;;;;;;10.13;5.03;;;;;;;10.57;41.86;61930.84;5100648;28;20454;-78
2022/03/14 10:53:43;;;;;;;7.83;5.00;;;;;;;11.36;42.57;62009.88;5096105;28;20271;-78
2022/03/14 10:56:12;;;;;;;8.97;5.10;;;;;;;10.52;41.25;61919.84;5095522;28;20192;-77
2022/03/14 10:58:40;;;;;;;7.43;4.73;;;;;;;11.11;42.30;61985.09;5095319;28;20230;-78
2022/03/14 11:01:08;;;;;;;8.30;5.50;;;;;;;11.25;42.24;61997.56;5095156;28;20214;-77
2022/03/14 11:03:37;;;;;;;11.20;5.67;;;;;;;11.47;41.09;62013.47;5093804;28;20219;-78
2022/03/14 11:06:07;;;;;;;12.63;5.70;;;;;;;12.23;40.41;62107.78;5095418;28;20684;-77
2022/03/14 11:08:39;;;;;;;12.77;5.57;;;;;;;11.87;40.19;62066.59;5095134;28;20211;-77
2022/03/14 11:11:13;;;;;;;10.53;5.30;;;;;;;11.32;41.00;62005.03;5094986;28;20207;-77
2022/03/14 11:13:47;;;;;;;9.20;5.10;;;;;;;10.34;42.19;61906.22;5095422;28;20638;-78
2022/03/14 11:16:19;;;;;;;10.50;5.30;;;;;;;11.56;42.13;62033.31;5095100;28;20192;-78
2022/03/14 11:18:47;;;;;;;10.10;5.60;;;;;;;11.82;41.96;62063.78;5095186;28;20216;-78
2022/03/14 11:21:24;;;;;;;17.60;6.60;;;;;;;11.68;41.99;62048.75;5094790;28;20666;-76
2022/03/14 11:23:53;;;;;;;9.07;6.27;;;;;;;10.40;41.17;61917.72;5094727;28;20237;-79
2022/03/14 11:26:24;;;;;;;12.67;5.93;;;;;;;11.60;41.74;62035.06;5095113;28;20584;-78
2022/03/14 11:28:54;;;;;;;8.93;5.83;;;;;;;11.57;41.67;62029.81;5095132;28;20418;-77
2022/03/14 11:31:24;;;;;;;10.70;5.90;;;;;;;11.53;42.06;62028.09;5094802;28;20200;-77
2022/03/14 11:33:51;;;;;;;7.63;5.43;;;;;;;11.58;40.80;62032.91;5094533;28;20207;-79
2022/03/14 11:36:20;;;;;;;15.90;6.10;;;;;;;11.65;42.46;62043.50;5094797;28;20234;-77
2022/03/14 11:38:50;;;;;;;10.10;6.20;;;;;;;11.78;41.85;62049.28;5093447;28;20207;-77
2022/03/14 11:41:25;;;;;;;12.27;6.73;;;;;;;12.31;41.74;62113.81;5094521;28;20622;-77
2022/03/14 11:43:56;;;;;;;12.83;6.43;;;;;;;12.52;40.10;62141.44;5094417;28;20229;-78
2022/03/14 11:46:25;;;;;;;10.70;5.97;;;;;;;12.20;40.57;62099.44;5094347;28;20203;-78
2022/03/14 11:48:54;;;;;;;10.00;6.47;;;;;;;12.55;40.22;62137.00;5094219;28;20287;-80
2022/03/14 11:51:37;;;;;;;13.13;6.03;;;;;;;12.87;39.29;62175.38;5094328;28;20211;-78
2022/03/14 11:54:10;;;;;;;22.47;7.00;;;;;;;12.57;40.11;62134.03;5094680;28;20203;-77
2022/03/14 11:56:38;;;;;;;17.20;6.97;;;;;;;11.77;40.58;62055.88;5094195;28;20279;-77
2022/03/14 11:59:11;;;;;;;8.07;5.30;;;;;;;11.76;41.35;62054.78;5094156;28;20227;-77
2022/03/14 12:01:48;;;;;;;9.77;5.63;;;;;;;11.00;41.72;61974.38;5094246;28;20203;-77
2022/03/14 12:04:38;;;;;;;11.37;6.13;;;;;;;11.53;41.24;62032.66;5093646;28;20601;-77
2022/03/14 12:07:13;;;;;;;19.50;6.93;;;;;;;11.60;42.71;62033.06;5094363;28;20294;-78
2022/03/14 12:09:55;;;;;;;10.63;7.00;;;;;;;10.79;42.06;61951.88;5094422;28;20198;-79
2022/03/14 12:12:30;;;;;;;12.17;6.50;;;;;;;11.70;42.67;62046.34;5093538;28;20203;-79
2022/03/14 12:15:00;;;;;;;10.20;6.00;;;;;;;12.27;40.88;62106.97;5094526;28;20195;-79
2022/03/14 12:17:31;;;;;;;12.67;6.90;;;;;;;11.27;41.28;61999.69;5094548;28;20289;-79
2022/03/14 12:20:03;;;;;;;12.03;6.43;;;;;;;12.93;40.10;62177.25;5094539;28;20260;-78
2022/03/14 12:22:51;;;;;;;9.63;6.60;;;;;;;13.41;39.62;62233.41;5094324;28;20221;-79